sensor_id;sensor_type;location;lat;lon;timestamp;temperature;humidity
36652;DHT22;53334;51.976;20.144;2022-12-20T00:01:35;25.10;44.20
36652;DHT22;53334;51.976;20.144;2022-12-20T00:04:09;25.10;44.20
36652;DHT22;53334;51.976;20.144;2022-12-20T00:06:43;25.10;44.90
36652;DHT22;53334;51.976;20.144;2022-12-20T00:09:16;25.10;44.30
36652;DHT22;53334;51.976;20.144;2022-12-20T00:11:51;25.10;44.30
36652;DHT22;53334;51.976;20.144;2022-12-20T00:14:24;25.10;44.40
36652;DHT22;53334;51.976;20.144;2022-12-20T00:16:57;25.10;44.40
36652;DHT22;53334;51.976;20.144;2022-12-20T00:19:30;25.10;44.40
36652;DHT22;53334;51.976;20.144;2022-12-20T00:22:05;25.10;44.40
36652;DHT22;53334;51.976;20.144;2022-12-20T00:24:38;25.10;44.30
36652;DHT22;53334;51.976;20.144;2022-12-20T00:27:12;25.10;44.30
36652;DHT22;53334;51.976;20.144;2022-12-20T00:29:47;25.10;44.30
36652;DHT22;53334;51.976;20.144;2022-12-20T00:32:20;25.10;44.20
36652;DHT22;53334;51.976;20.144;2022-12-20T00:34:53;25.10;44.10
36652;DHT22;53334;51.976;20.144;2022-12-20T00:37:26;25.00;44.10
36652;DHT22;53334;51.976;20.144;2022-12-20T00:40:00;25.00;44.10
36652;DHT22;53334;51.976;20.144;2022-12-20T00:42:36;25.00;44.10
36652;DHT22;53334;51.976;20.144;2022-12-20T00:45:10;25.00;44.10
36652;DHT22;53334;51.976;20.144;2022-12-20T00:47:43;25.00;44.10
36652;DHT22;53334;51.976;20.144;2022-12-20T00:50:16;25.00;44.10
36652;DHT22;53334;51.976;20.144;2022-12-20T00:52:49;25.00;44.10
36652;DHT22;53334;51.976;20.144;2022-12-20T00:55:22;25.00;44.60
36652;DHT22;53334;51.976;20.144;2022-12-20T00:57:57;25.00;43.90
36652;DHT22;53334;51.976;20.144;2022-12-20T01:00:30;25.00;43.90
36652;DHT22;53334;51.976;20.144;2022-12-20T01:03:04;25.00;43.90
36652;DHT22;53334;51.976;20.144;2022-12-20T01:05:38;25.00;44.00
36652;DHT22;53334;51.976;20.144;2022-12-20T01:08:11;25.00;43.90
36652;DHT22;53334;51.976;20.144;2022-12-20T01:10:47;25.00;43.80
36652;DHT22;53334;51.976;20.144;2022-12-20T01:13:32;25.00;43.90
36652;DHT22;53334;51.976;20.144;2022-12-20T01:16:06;24.90;43.80
36652;DHT22;53334;51.976;20.144;2022-12-20T01:18:40;24.90;43.80
36652;DHT22;53334;51.976;20.144;2022-12-20T01:21:15;25.00;43.80
36652;DHT22;53334;51.976;20.144;2022-12-20T01:23:49;25.00;43.80
36652;DHT22;53334;51.976;20.144;2022-12-20T01:26:25;24.90;43.70
36652;DHT22;53334;51.976;20.144;2022-12-20T01:29:01;24.90;43.60
36652;DHT22;53334;51.976;20.144;2022-12-20T01:31:35;24.90;43.60
36652;DHT22;53334;51.976;20.144;2022-12-20T01:34:08;24.90;43.60
36652;DHT22;53334;51.976;20.144;2022-12-20T01:36:41;24.90;43.50
36652;DHT22;53334;51.976;20.144;2022-12-20T01:39:18;24.90;43.50
36652;DHT22;53334;51.976;20.144;2022-12-20T01:41:52;24.90;43.50
36652;DHT22;53334;51.976;20.144;2022-12-20T01:44:54;24.90;43.40
36652;DHT22;53334;51.976;20.144;2022-12-20T01:47:31;24.90;43.60
36652;DHT22;53334;51.976;20.144;2022-12-20T01:50:07;24.90;43.80
36652;DHT22;53334;51.976;20.144;2022-12-20T01:52:42;24.90;44.30
36652;DHT22;53334;51.976;20.144;2022-12-20T01:55:20;24.90;44.80
36652;DHT22;53334;51.976;20.144;2022-12-20T01:57:57;24.90;45.20
36652;DHT22;53334;51.976;20.144;2022-12-20T02:00:33;24.90;45.20
36652;DHT22;53334;51.976;20.144;2022-12-20T02:03:07;24.90;45.10
36652;DHT22;53334;51.976;20.144;2022-12-20T02:05:43;24.90;45.30
36652;DHT22;53334;51.976;20.144;2022-12-20T02:08:18;24.90;45.40
36652;DHT22;53334;51.976;20.144;2022-12-20T02:11:05;24.90;45.40
36652;DHT22;53334;51.976;20.144;2022-12-20T02:14:04;24.90;45.50
36652;DHT22;53334;51.976;20.144;2022-12-20T02:16:48;24.90;45.60
36652;DHT22;53334;51.976;20.144;2022-12-20T02:19:45;24.90;45.50
36652;DHT22;53334;51.976;20.144;2022-12-20T02:22:35;24.90;45.60
36652;DHT22;53334;51.976;20.144;2022-12-20T02:28:37;24.90;45.40
36652;DHT22;53334;51.976;20.144;2022-12-20T02:31:18;24.90;45.40
36652;DHT22;53334;51.976;20.144;2022-12-20T02:33:54;24.90;45.40
36652;DHT22;53334;51.976;20.144;2022-12-20T02:36:28;24.90;45.20
36652;DHT22;53334;51.976;20.144;2022-12-20T02:39:02;24.90;45.70
36652;DHT22;53334;51.976;20.144;2022-12-20T02:41:38;24.90;45.20
36652;DHT22;53334;51.976;20.144;2022-12-20T02:44:15;24.90;45.20
36652;DHT22;53334;51.976;20.144;2022-12-20T02:47:13;24.90;45.20
36652;DHT22;53334;51.976;20.144;2022-12-20T02:49:50;24.90;45.20
36652;DHT22;53334;51.976;20.144;2022-12-20T02:52:26;24.90;45.20
36652;DHT22;53334;51.976;20.144;2022-12-20T02:55:02;24.90;45.20
36652;DHT22;53334;51.976;20.144;2022-12-20T02:57:44;24.90;45.20
36652;DHT22;53334;51.976;20.144;2022-12-20T03:00:19;24.90;45.20
36652;DHT22;53334;51.976;20.144;2022-12-20T03:02:55;24.90;45.20
36652;DHT22;53334;51.976;20.144;2022-12-20T03:05:46;24.90;45.20
36652;DHT22;53334;51.976;20.144;2022-12-20T03:08:23;24.90;45.10
36652;DHT22;53334;51.976;20.144;2022-12-20T03:10:57;24.90;45.00
36652;DHT22;53334;51.976;20.144;2022-12-20T03:13:30;24.90;45.10
36652;DHT22;53334;51.976;20.144;2022-12-20T03:16:11;24.90;45.10
36652;DHT22;53334;51.976;20.144;2022-12-20T03:18:45;24.90;45.10
36652;DHT22;53334;51.976;20.144;2022-12-20T03:21:19;24.90;45.10
36652;DHT22;53334;51.976;20.144;2022-12-20T03:23:52;24.90;45.10
36652;DHT22;53334;51.976;20.144;2022-12-20T03:26:25;24.90;45.10
36652;DHT22;53334;51.976;20.144;2022-12-20T03:29:02;24.90;45.00
36652;DHT22;53334;51.976;20.144;2022-12-20T03:31:36;24.90;45.10
36652;DHT22;53334;51.976;20.144;2022-12-20T03:34:10;24.90;45.10
36652;DHT22;53334;51.976;20.144;2022-12-20T03:36:44;24.90;45.10
36652;DHT22;53334;51.976;20.144;2022-12-20T03:39:18;24.90;45.10
36652;DHT22;53334;51.976;20.144;2022-12-20T03:41:54;24.90;45.10
36652;DHT22;53334;51.976;20.144;2022-12-20T03:44:28;24.90;45.10
36652;DHT22;53334;51.976;20.144;2022-12-20T03:47:01;24.90;45.20
36652;DHT22;53334;51.976;20.144;2022-12-20T03:49:36;24.90;45.20
36652;DHT22;53334;51.976;20.144;2022-12-20T03:52:11;24.90;45.20
36652;DHT22;53334;51.976;20.144;2022-12-20T03:54:46;24.90;45.20
36652;DHT22;53334;51.976;20.144;2022-12-20T03:57:23;24.90;45.10
36652;DHT22;53334;51.976;20.144;2022-12-20T03:59:57;24.90;45.20
36652;DHT22;53334;51.976;20.144;2022-12-20T04:02:30;24.90;45.80
36652;DHT22;53334;51.976;20.144;2022-12-20T04:05:06;24.90;45.20
36652;DHT22;53334;51.976;20.144;2022-12-20T04:07:41;24.90;45.20
36652;DHT22;53334;51.976;20.144;2022-12-20T04:10:16;24.90;45.20
36652;DHT22;53334;51.976;20.144;2022-12-20T04:12:50;24.90;45.30
36652;DHT22;53334;51.976;20.144;2022-12-20T04:15:23;24.90;45.30
36652;DHT22;53334;51.976;20.144;2022-12-20T04:17:56;24.90;45.30
36652;DHT22;53334;51.976;20.144;2022-12-20T04:20:31;24.90;45.30
36652;DHT22;53334;51.976;20.144;2022-12-20T04:23:16;24.90;45.40
36652;DHT22;53334;51.976;20.144;2022-12-20T04:25:51;24.90;45.40
36652;DHT22;53334;51.976;20.144;2022-12-20T04:28:25;24.90;45.40
36652;DHT22;53334;51.976;20.144;2022-12-20T04:30:59;24.90;45.40
36652;DHT22;53334;51.976;20.144;2022-12-20T04:33:35;24.90;45.40
36652;DHT22;53334;51.976;20.144;2022-12-20T04:36:11;24.90;45.40
36652;DHT22;53334;51.976;20.144;2022-12-20T04:38:45;24.90;45.40
36652;DHT22;53334;51.976;20.144;2022-12-20T04:41:18;24.90;45.30
36652;DHT22;53334;51.976;20.144;2022-12-20T04:43:59;24.90;45.30
36652;DHT22;53334;51.976;20.144;2022-12-20T04:46:39;24.90;45.90
36652;DHT22;53334;51.976;20.144;2022-12-20T04:49:17;24.90;45.30
36652;DHT22;53334;51.976;20.144;2022-12-20T04:51:51;24.90;45.30
36652;DHT22;53334;51.976;20.144;2022-12-20T04:54:25;24.90;45.30
36652;DHT22;53334;51.976;20.144;2022-12-20T04:57:03;24.90;45.30
36652;DHT22;53334;51.976;20.144;2022-12-20T04:59:36;24.90;45.30
36652;DHT22;53334;51.976;20.144;2022-12-20T05:02:10;24.90;45.30
36652;DHT22;53334;51.976;20.144;2022-12-20T05:04:54;24.90;45.20
36652;DHT22;53334;51.976;20.144;2022-12-20T05:07:29;24.90;45.30
36652;DHT22;53334;51.976;20.144;2022-12-20T05:10:02;24.90;45.40
36652;DHT22;53334;51.976;20.144;2022-12-20T05:12:36;24.90;45.30
36652;DHT22;53334;51.976;20.144;2022-12-20T05:15:10;24.90;45.20
36652;DHT22;53334;51.976;20.144;2022-12-20T05:17:43;24.90;45.10
36652;DHT22;53334;51.976;20.144;2022-12-20T05:20:17;24.90;45.10
36652;DHT22;53334;51.976;20.144;2022-12-20T05:22:52;24.90;45.10
36652;DHT22;53334;51.976;20.144;2022-12-20T05:25:45;24.90;45.10
36652;DHT22;53334;51.976;20.144;2022-12-20T05:28:43;24.90;45.10
36652;DHT22;53334;51.976;20.144;2022-12-20T05:31:16;24.90;45.20
36652;DHT22;53334;51.976;20.144;2022-12-20T05:33:50;24.90;45.20
36652;DHT22;53334;51.976;20.144;2022-12-20T05:36:23;24.80;45.10
36652;DHT22;53334;51.976;20.144;2022-12-20T05:39:00;24.90;45.10
36652;DHT22;53334;51.976;20.144;2022-12-20T05:41:37;24.90;45.00
36652;DHT22;53334;51.976;20.144;2022-12-20T05:44:12;24.90;45.00
36652;DHT22;53334;51.976;20.144;2022-12-20T05:46:49;24.90;45.00
36652;DHT22;53334;51.976;20.144;2022-12-20T05:49:29;24.90;44.90
36652;DHT22;53334;51.976;20.144;2022-12-20T05:52:04;24.90;44.90
36652;DHT22;53334;51.976;20.144;2022-12-20T05:54:41;24.90;44.90
36652;DHT22;53334;51.976;20.144;2022-12-20T05:57:18;24.90;44.90
36652;DHT22;53334;51.976;20.144;2022-12-20T05:59:51;24.90;44.80
36652;DHT22;53334;51.976;20.144;2022-12-20T06:02:28;24.90;44.80
36652;DHT22;53334;51.976;20.144;2022-12-20T06:05:07;24.90;44.80
36652;DHT22;53334;51.976;20.144;2022-12-20T06:07:40;24.90;44.70
36652;DHT22;53334;51.976;20.144;2022-12-20T06:10:14;24.80;44.70
36652;DHT22;53334;51.976;20.144;2022-12-20T06:12:55;24.90;44.80
36652;DHT22;53334;51.976;20.144;2022-12-20T06:15:29;24.90;44.70
36652;DHT22;53334;51.976;20.144;2022-12-20T06:18:05;24.90;44.70
36652;DHT22;53334;51.976;20.144;2022-12-20T06:20:38;24.80;44.70
36652;DHT22;53334;51.976;20.144;2022-12-20T06:23:14;24.90;44.60
36652;DHT22;53334;51.976;20.144;2022-12-20T06:25:56;24.90;44.50
36652;DHT22;53334;51.976;20.144;2022-12-20T06:28:33;24.90;44.50
36652;DHT22;53334;51.976;20.144;2022-12-20T06:31:13;24.90;44.50
36652;DHT22;53334;51.976;20.144;2022-12-20T06:33:50;24.90;44.40
36652;DHT22;53334;51.976;20.144;2022-12-20T06:36:26;24.80;44.30
36652;DHT22;53334;51.976;20.144;2022-12-20T06:38:59;24.90;44.40
36652;DHT22;53334;51.976;20.144;2022-12-20T06:41:43;24.90;44.50
36652;DHT22;53334;51.976;20.144;2022-12-20T06:44:17;24.90;44.60
36652;DHT22;53334;51.976;20.144;2022-12-20T06:46:50;24.90;45.00
36652;DHT22;53334;51.976;20.144;2022-12-20T06:49:24;24.90;45.20
36652;DHT22;53334;51.976;20.144;2022-12-20T06:51:57;24.90;45.70
36652;DHT22;53334;51.976;20.144;2022-12-20T06:54:49;24.90;45.70
36652;DHT22;53334;51.976;20.144;2022-12-20T06:57:26;24.90;46.00
36652;DHT22;53334;51.976;20.144;2022-12-20T07:00:00;24.90;46.20
36652;DHT22;53334;51.976;20.144;2022-12-20T07:02:33;24.90;46.30
36652;DHT22;53334;51.976;20.144;2022-12-20T07:05:07;24.90;46.50
36652;DHT22;53334;51.976;20.144;2022-12-20T07:07:41;25.00;46.60
36652;DHT22;53334;51.976;20.144;2022-12-20T07:10:16;25.00;46.70
36652;DHT22;53334;51.976;20.144;2022-12-20T07:12:52;24.90;46.60
36652;DHT22;53334;51.976;20.144;2022-12-20T07:15:25;25.00;46.80
36652;DHT22;53334;51.976;20.144;2022-12-20T07:17:58;25.00;47.00
36652;DHT22;53334;51.976;20.144;2022-12-20T07:20:32;25.00;47.00
36652;DHT22;53334;51.976;20.144;2022-12-20T07:23:05;25.00;46.90
36652;DHT22;53334;51.976;20.144;2022-12-20T07:25:38;25.00;46.80
36652;DHT22;53334;51.976;20.144;2022-12-20T07:28:13;25.00;46.50
36652;DHT22;53334;51.976;20.144;2022-12-20T07:30:46;25.00;46.50
36652;DHT22;53334;51.976;20.144;2022-12-20T07:33:19;25.00;46.60
36652;DHT22;53334;51.976;20.144;2022-12-20T07:35:59;25.00;46.40
36652;DHT22;53334;51.976;20.144;2022-12-20T07:38:33;25.00;46.00
36652;DHT22;53334;51.976;20.144;2022-12-20T07:41:06;25.00;45.80
36652;DHT22;53334;51.976;20.144;2022-12-20T07:43:42;25.00;45.60
36652;DHT22;53334;51.976;20.144;2022-12-20T07:46:16;25.00;38.70
36652;DHT22;53334;51.976;20.144;2022-12-20T07:48:50;24.90;32.70
36652;DHT22;53334;51.976;20.144;2022-12-20T07:51:25;24.80;30.00
36652;DHT22;53334;51.976;20.144;2022-12-20T07:54:02;24.70;32.80
36652;DHT22;53334;51.976;20.144;2022-12-20T07:56:38;24.60;32.60
36652;DHT22;53334;51.976;20.144;2022-12-20T07:59:17;24.60;32.70
36652;DHT22;53334;51.976;20.144;2022-12-20T08:01:51;24.60;32.90
36652;DHT22;53334;51.976;20.144;2022-12-20T08:04:33;24.70;33.20
36652;DHT22;53334;51.976;20.144;2022-12-20T08:07:06;24.80;33.30
36652;DHT22;53334;51.976;20.144;2022-12-20T08:09:42;25.00;33.60
36652;DHT22;53334;51.976;20.144;2022-12-20T08:12:16;25.10;33.70
36652;DHT22;53334;51.976;20.144;2022-12-20T08:14:52;25.10;34.00
36652;DHT22;53334;51.976;20.144;2022-12-20T08:17:27;25.20;34.10
36652;DHT22;53334;51.976;20.144;2022-12-20T08:20:00;25.30;34.40
36652;DHT22;53334;51.976;20.144;2022-12-20T08:22:33;25.30;34.60
36652;DHT22;53334;51.976;20.144;2022-12-20T08:25:07;25.40;34.70
36652;DHT22;53334;51.976;20.144;2022-12-20T08:27:42;25.40;34.90
36652;DHT22;53334;51.976;20.144;2022-12-20T08:30:17;25.40;35.00
36652;DHT22;53334;51.976;20.144;2022-12-20T08:32:50;25.40;35.20
36652;DHT22;53334;51.976;20.144;2022-12-20T08:35:23;25.40;35.40
36652;DHT22;53334;51.976;20.144;2022-12-20T08:37:57;25.30;35.50
36652;DHT22;53334;51.976;20.144;2022-12-20T08:40:30;25.30;35.80
36652;DHT22;53334;51.976;20.144;2022-12-20T08:43:03;25.30;36.10
36652;DHT22;53334;51.976;20.144;2022-12-20T08:45:42;25.30;36.30
36652;DHT22;53334;51.976;20.144;2022-12-20T08:48:15;25.20;36.50
36652;DHT22;53334;51.976;20.144;2022-12-20T08:50:53;25.20;36.90
36652;DHT22;53334;51.976;20.144;2022-12-20T08:53:28;25.20;37.60
36652;DHT22;53334;51.976;20.144;2022-12-20T08:56:06;25.20;37.80
36652;DHT22;53334;51.976;20.144;2022-12-20T08:58:40;25.20;38.00
36652;DHT22;53334;51.976;20.144;2022-12-20T09:01:18;25.20;38.20
36652;DHT22;53334;51.976;20.144;2022-12-20T09:03:52;25.10;38.40
36652;DHT22;53334;51.976;20.144;2022-12-20T09:06:26;25.10;38.40
36652;DHT22;53334;51.976;20.144;2022-12-20T09:08:59;25.20;38.40
36652;DHT22;53334;51.976;20.144;2022-12-20T09:11:32;25.20;38.30
36652;DHT22;53334;51.976;20.144;2022-12-20T09:14:06;25.10;38.30
36652;DHT22;53334;51.976;20.144;2022-12-20T09:16:40;25.10;38.50
36652;DHT22;53334;51.976;20.144;2022-12-20T09:19:14;25.20;38.60
36652;DHT22;53334;51.976;20.144;2022-12-20T09:21:47;25.10;38.60
36652;DHT22;53334;51.976;20.144;2022-12-20T09:24:20;25.10;38.70
36652;DHT22;53334;51.976;20.144;2022-12-20T09:26:54;25.20;38.80
36652;DHT22;53334;51.976;20.144;2022-12-20T09:29:27;25.10;38.90
36652;DHT22;53334;51.976;20.144;2022-12-20T09:32:08;25.20;39.30
36652;DHT22;53334;51.976;20.144;2022-12-20T09:34:43;25.20;39.60
36652;DHT22;53334;51.976;20.144;2022-12-20T09:37:18;25.20;39.80
36652;DHT22;53334;51.976;20.144;2022-12-20T09:39:54;25.30;40.30
36652;DHT22;53334;51.976;20.144;2022-12-20T09:42:28;25.30;40.90
36652;DHT22;53334;51.976;20.144;2022-12-20T09:45:06;25.30;41.10
36652;DHT22;53334;51.976;20.144;2022-12-20T09:47:42;25.30;41.30
36652;DHT22;53334;51.976;20.144;2022-12-20T09:50:17;25.30;41.30
36652;DHT22;53334;51.976;20.144;2022-12-20T09:53:05;25.30;41.50
36652;DHT22;53334;51.976;20.144;2022-12-20T09:55:53;25.30;41.30
36652;DHT22;53334;51.976;20.144;2022-12-20T09:58:38;25.30;41.20
36652;DHT22;53334;51.976;20.144;2022-12-20T10:01:15;25.30;41.30
36652;DHT22;53334;51.976;20.144;2022-12-20T10:03:59;25.20;41.30
36652;DHT22;53334;51.976;20.144;2022-12-20T10:06:42;25.20;41.30
36652;DHT22;53334;51.976;20.144;2022-12-20T10:09:35;25.20;41.20
36652;DHT22;53334;51.976;20.144;2022-12-20T10:12:19;25.20;41.20
36652;DHT22;53334;51.976;20.144;2022-12-20T10:15:03;25.20;41.30
36652;DHT22;53334;51.976;20.144;2022-12-20T10:17:45;25.20;41.40
36652;DHT22;53334;51.976;20.144;2022-12-20T10:20:33;25.20;41.40
36652;DHT22;53334;51.976;20.144;2022-12-20T10:23:14;25.10;33.20
36652;DHT22;53334;51.976;20.144;2022-12-20T10:26:08;25.10;34.00
36652;DHT22;53334;51.976;20.144;2022-12-20T10:28:42;25.00;34.40
36652;DHT22;53334;51.976;20.144;2022-12-20T10:31:23;25.00;34.60
36652;DHT22;53334;51.976;20.144;2022-12-20T10:33:56;25.00;34.90
36652;DHT22;53334;51.976;20.144;2022-12-20T10:36:33;24.90;35.00
36652;DHT22;53334;51.976;20.144;2022-12-20T10:39:08;24.90;35.00
36652;DHT22;53334;51.976;20.144;2022-12-20T10:41:49;24.90;35.30
36652;DHT22;53334;51.976;20.144;2022-12-20T10:44:25;24.80;35.60
36652;DHT22;53334;51.976;20.144;2022-12-20T10:46:59;24.80;35.70
36652;DHT22;53334;51.976;20.144;2022-12-20T10:49:34;24.80;35.80
36652;DHT22;53334;51.976;20.144;2022-12-20T10:52:12;24.80;35.70
36652;DHT22;53334;51.976;20.144;2022-12-20T10:54:46;24.80;36.10
36652;DHT22;53334;51.976;20.144;2022-12-20T10:57:21;24.80;36.30
36652;DHT22;53334;51.976;20.144;2022-12-20T10:59:58;24.80;36.50
36652;DHT22;53334;51.976;20.144;2022-12-20T11:02:32;24.70;36.50
36652;DHT22;53334;51.976;20.144;2022-12-20T11:05:21;24.80;37.10
36652;DHT22;53334;51.976;20.144;2022-12-20T11:07:59;24.70;37.80
36652;DHT22;53334;51.976;20.144;2022-12-20T11:11:10;24.80;37.60
36652;DHT22;53334;51.976;20.144;2022-12-20T11:13:45;24.80;38.40
36652;DHT22;53334;51.976;20.144;2022-12-20T11:16:28;24.80;38.10
36652;DHT22;53334;51.976;20.144;2022-12-20T11:22:18;24.80;39.00
36652;DHT22;53334;51.976;20.144;2022-12-20T11:25:05;24.80;38.60
36652;DHT22;53334;51.976;20.144;2022-12-20T11:27:47;24.80;38.90
36652;DHT22;53334;51.976;20.144;2022-12-20T11:30:23;24.80;39.10
36652;DHT22;53334;51.976;20.144;2022-12-20T11:33:09;24.80;39.70
36652;DHT22;53334;51.976;20.144;2022-12-20T11:35:51;24.80;40.60
36652;DHT22;53334;51.976;20.144;2022-12-20T11:38:36;24.80;40.90
36652;DHT22;53334;51.976;20.144;2022-12-20T11:41:20;24.80;41.60
36652;DHT22;53334;51.976;20.144;2022-12-20T11:44:05;24.80;41.90
36652;DHT22;53334;51.976;20.144;2022-12-20T11:47:06;24.80;42.20
36652;DHT22;53334;51.976;20.144;2022-12-20T11:49:56;24.80;42.70
36652;DHT22;53334;51.976;20.144;2022-12-20T11:52:38;24.90;43.10
36652;DHT22;53334;51.976;20.144;2022-12-20T11:55:17;24.90;43.10
36652;DHT22;53334;51.976;20.144;2022-12-20T11:57:58;24.90;43.20
36652;DHT22;53334;51.976;20.144;2022-12-20T12:00:54;24.90;43.30
36652;DHT22;53334;51.976;20.144;2022-12-20T12:03:32;24.90;43.50
36652;DHT22;53334;51.976;20.144;2022-12-20T12:06:08;24.90;44.00
36652;DHT22;53334;51.976;20.144;2022-12-20T12:08:45;24.90;44.10
36652;DHT22;53334;51.976;20.144;2022-12-20T12:11:23;24.90;44.30
36652;DHT22;53334;51.976;20.144;2022-12-20T12:14:28;25.00;44.50
36652;DHT22;53334;51.976;20.144;2022-12-20T12:17:08;24.90;44.80
36652;DHT22;53334;51.976;20.144;2022-12-20T12:19:46;25.00;45.70
36652;DHT22;53334;51.976;20.144;2022-12-20T12:22:26;25.00;45.30
36652;DHT22;53334;51.976;20.144;2022-12-20T12:25:03;25.00;45.50
36652;DHT22;53334;51.976;20.144;2022-12-20T12:27:41;25.00;45.60
36652;DHT22;53334;51.976;20.144;2022-12-20T12:30:16;25.00;45.90
36652;DHT22;53334;51.976;20.144;2022-12-20T12:32:54;25.00;45.90
36652;DHT22;53334;51.976;20.144;2022-12-20T12:39:08;25.00;46.60
36652;DHT22;53334;51.976;20.144;2022-12-20T12:44:59;25.00;47.60
36652;DHT22;53334;51.976;20.144;2022-12-20T12:47:37;25.00;47.80
36652;DHT22;53334;51.976;20.144;2022-12-20T12:50:20;25.10;48.80
36652;DHT22;53334;51.976;20.144;2022-12-20T12:52:56;25.00;49.70
36652;DHT22;53334;51.976;20.144;2022-12-20T12:55:42;25.10;50.20
36652;DHT22;53334;51.976;20.144;2022-12-20T12:58:37;25.10;50.70
36652;DHT22;53334;51.976;20.144;2022-12-20T13:01:47;25.10;51.00
36652;DHT22;53334;51.976;20.144;2022-12-20T13:04:28;25.10;51.60
36652;DHT22;53334;51.976;20.144;2022-12-20T13:07:23;25.10;52.70
36652;DHT22;53334;51.976;20.144;2022-12-20T13:09:58;25.10;52.60
36652;DHT22;53334;51.976;20.144;2022-12-20T13:15:47;25.10;53.50
36652;DHT22;53334;51.976;20.144;2022-12-20T13:18:23;25.10;53.50
36652;DHT22;53334;51.976;20.144;2022-12-20T13:21:26;25.10;53.00
36652;DHT22;53334;51.976;20.144;2022-12-20T13:27:29;25.10;52.30
36652;DHT22;53334;51.976;20.144;2022-12-20T13:30:27;25.10;52.10
36652;DHT22;53334;51.976;20.144;2022-12-20T13:33:19;25.10;51.40
36652;DHT22;53334;51.976;20.144;2022-12-20T13:36:36;25.10;51.10
36652;DHT22;53334;51.976;20.144;2022-12-20T13:39:31;25.10;50.50
36652;DHT22;53334;51.976;20.144;2022-12-20T13:42:18;25.10;50.20
36652;DHT22;53334;51.976;20.144;2022-12-20T13:44:54;25.10;49.80
36652;DHT22;53334;51.976;20.144;2022-12-20T13:47:33;25.10;49.70
36652;DHT22;53334;51.976;20.144;2022-12-20T13:50:23;25.00;49.40
36652;DHT22;53334;51.976;20.144;2022-12-20T13:52:59;25.10;49.10
36652;DHT22;53334;51.976;20.144;2022-12-20T13:55:38;25.10;48.90
36652;DHT22;53334;51.976;20.144;2022-12-20T13:58:16;25.00;48.60
36652;DHT22;53334;51.976;20.144;2022-12-20T14:00:51;25.00;48.40
36652;DHT22;53334;51.976;20.144;2022-12-20T14:03:27;25.00;48.40
36652;DHT22;53334;51.976;20.144;2022-12-20T14:06:03;25.00;48.50
36652;DHT22;53334;51.976;20.144;2022-12-20T14:08:41;25.00;48.50
36652;DHT22;53334;51.976;20.144;2022-12-20T14:11:17;25.00;48.70
36652;DHT22;53334;51.976;20.144;2022-12-20T14:13:51;25.10;48.70
36652;DHT22;53334;51.976;20.144;2022-12-20T14:16:28;25.10;48.60
36652;DHT22;53334;51.976;20.144;2022-12-20T14:19:02;25.10;48.40
36652;DHT22;53334;51.976;20.144;2022-12-20T14:21:38;25.10;48.40
36652;DHT22;53334;51.976;20.144;2022-12-20T14:24:15;25.10;48.30
36652;DHT22;53334;51.976;20.144;2022-12-20T14:26:51;25.10;48.40
36652;DHT22;53334;51.976;20.144;2022-12-20T14:29:28;25.10;48.20
36652;DHT22;53334;51.976;20.144;2022-12-20T14:32:03;25.10;48.20
36652;DHT22;53334;51.976;20.144;2022-12-20T14:34:37;25.10;48.30
36652;DHT22;53334;51.976;20.144;2022-12-20T14:37:27;25.00;48.50
36652;DHT22;53334;51.976;20.144;2022-12-20T14:40:15;25.00;48.50
36652;DHT22;53334;51.976;20.144;2022-12-20T14:42:50;25.10;48.80
36652;DHT22;53334;51.976;20.144;2022-12-20T14:45:26;25.10;48.80
36652;DHT22;53334;51.976;20.144;2022-12-20T14:48:03;25.10;48.70
36652;DHT22;53334;51.976;20.144;2022-12-20T14:50:38;25.10;48.80
36652;DHT22;53334;51.976;20.144;2022-12-20T14:53:17;25.10;49.00
36652;DHT22;53334;51.976;20.144;2022-12-20T14:55:54;25.10;49.00
36652;DHT22;53334;51.976;20.144;2022-12-20T14:58:29;25.10;49.00
36652;DHT22;53334;51.976;20.144;2022-12-20T15:01:19;25.10;49.00
36652;DHT22;53334;51.976;20.144;2022-12-20T15:03:54;25.10;49.20
36652;DHT22;53334;51.976;20.144;2022-12-20T15:06:42;25.10;49.40
36652;DHT22;53334;51.976;20.144;2022-12-20T15:09:17;25.20;49.60
36652;DHT22;53334;51.976;20.144;2022-12-20T15:11:52;25.20;49.70
36652;DHT22;53334;51.976;20.144;2022-12-20T15:14:36;25.20;49.80
36652;DHT22;53334;51.976;20.144;2022-12-20T15:17:13;25.20;50.10
36652;DHT22;53334;51.976;20.144;2022-12-20T15:19:46;25.20;49.90
36652;DHT22;53334;51.976;20.144;2022-12-20T15:22:20;25.20;50.00
36652;DHT22;53334;51.976;20.144;2022-12-20T15:24:53;25.20;49.90
36652;DHT22;53334;51.976;20.144;2022-12-20T15:27:28;25.20;49.80
36652;DHT22;53334;51.976;20.144;2022-12-20T15:30:09;25.20;49.90
36652;DHT22;53334;51.976;20.144;2022-12-20T15:32:44;25.20;50.20
36652;DHT22;53334;51.976;20.144;2022-12-20T15:35:26;25.20;50.30
36652;DHT22;53334;51.976;20.144;2022-12-20T15:38:01;25.20;50.70
36652;DHT22;53334;51.976;20.144;2022-12-20T15:40:34;25.20;50.80
36652;DHT22;53334;51.976;20.144;2022-12-20T15:43:12;25.20;51.10
36652;DHT22;53334;51.976;20.144;2022-12-20T15:45:47;25.20;51.50
36652;DHT22;53334;51.976;20.144;2022-12-20T15:48:22;25.30;51.60
36652;DHT22;53334;51.976;20.144;2022-12-20T15:50:57;25.30;51.80
36652;DHT22;53334;51.976;20.144;2022-12-20T15:53:32;25.30;51.90
36652;DHT22;53334;51.976;20.144;2022-12-20T15:56:14;25.30;52.00
36652;DHT22;53334;51.976;20.144;2022-12-20T15:58:50;25.30;52.10
36652;DHT22;53334;51.976;20.144;2022-12-20T16:01:27;25.40;52.20
36652;DHT22;53334;51.976;20.144;2022-12-20T16:04:14;25.40;52.40
36652;DHT22;53334;51.976;20.144;2022-12-20T16:06:49;25.40;52.40
36652;DHT22;53334;51.976;20.144;2022-12-20T16:09:24;25.40;52.40
36652;DHT22;53334;51.976;20.144;2022-12-20T16:11:57;25.40;52.80
36652;DHT22;53334;51.976;20.144;2022-12-20T16:14:32;25.40;53.00
36652;DHT22;53334;51.976;20.144;2022-12-20T16:17:10;25.40;52.90
36652;DHT22;53334;51.976;20.144;2022-12-20T16:19:45;25.40;52.70
36652;DHT22;53334;51.976;20.144;2022-12-20T16:22:20;25.50;52.70
36652;DHT22;53334;51.976;20.144;2022-12-20T16:24:54;25.40;52.60
36652;DHT22;53334;51.976;20.144;2022-12-20T16:27:27;25.40;52.50
36652;DHT22;53334;51.976;20.144;2022-12-20T16:30:02;25.40;52.40
36652;DHT22;53334;51.976;20.144;2022-12-20T16:32:36;25.50;51.90
36652;DHT22;53334;51.976;20.144;2022-12-20T16:35:22;25.50;51.60
36652;DHT22;53334;51.976;20.144;2022-12-20T16:37:56;25.50;51.50
36652;DHT22;53334;51.976;20.144;2022-12-20T16:40:31;25.50;51.30